Das ist die Wetter- und Hausseite der Bittkau's aus Magdeburg Ottersleben


Hier werden aktuelle Daten aus der privaten Wetterstation und

andere lokale Wettervorhersagen bereitgestellt




Thunder radar more information blitzortung!


Rain radar more information rain snow radar



Es ist keine erhöhte Aufmerksamkeit aufgrund des Wetters notwendig.    Es gibt keine Warnungen.

METAR-Meldungen aus der Umgebung

   
EBBC - Cochstedt
Aktualisierung: 01.01.1970 1:00
Nicht aktuell
  
  
   Wind: Windstille
Wind: Windstille
EDDP - Leipzig
Aktualisierung: 22.10.2018 9:20
Klar  
Klar  
   Wind: SSW 9.3 km/h
Wind: SSW 9.3 km/h
Temperatur: 7°C
Gefühlt: 5°C
Taupunkt: 4°C
Luftfeuchte: 81%
Luftdruck: 1027 hPa
Sichtbarkeit: More than 10 km
Bewölkung: Klar
EDDP 220720Z 20005KT CAVOK 07/04 Q1027 NOSIG
EDDC - Dresden
Aktualisierung: 22.10.2018 9:50
Klar  
Klar  
   Wind: SSW 11.1 km/h
Wind: SSW 11.1 km/h
Temperatur: 6°C
Gefühlt: 4°C
Taupunkt: 3°C
Luftfeuchte: 81%
Luftdruck: 1026 hPa
Sichtbarkeit: More than 10 km
Bewölkung: Klar
EDDC 220750Z 21006KT CAVOK 06/03 Q1026 NOSIG
EDDE - Erfurt
Aktualisierung: 22.10.2018 9:50
Stark bewölkt  
Stark bewölkt  
   Wind: WSW 16.7 km/h
Wind: WSW 16.7 km/h
Temperatur: 6°C
Gefühlt: 3°C
Taupunkt: 4°C
Luftfeuchte: 87%
Luftdruck: 1027 hPa
Bewölkt: Stark bewölkt
Sichtbarkeit: More than 10 km
Bewölkung: Stark bewölkt 853.4 m
EDDE 220750Z 24009KT 9999 BKN028 06/04 Q1027 NOSIG
EDVE - Braunschweig
Aktualisierung: 22.10.2018 9:20
Bewölkt  
Bewölkt  
   Wind: WNW 9.3 km/h
Wind: WNW 9.3 km/h
Temperatur: 10°C
Gefühlt: 9°C
Taupunkt: 7°C
Luftfeuchte: 82%
Luftdruck: 1026 hPa
Bewölkt: Bewölkt
Sichtbarkeit: More than 10 km
Bewölkung: Stark bewölkt 365.8 m,
Bewölkt 609.6 m
EDVE 220720Z 29005KT 9999 BKN012 OVC020 10/07 Q1026
EDDV - Hannover
Aktualisierung: 22.10.2018 9:50
Leichter Niederschlag möglich, Stark bewölkt  
Leichter Niederschlag möglich, Stark bewölkt  
   Wind: NNW 13 km/h
Wind: NNW 13 km/h
Temperatur: 10°C
Gefühlt: 8°C
Taupunkt: 9°C
Luftfeuchte: 94%
Luftdruck: 1028 hPa
Bewölkt: Stark bewölkt
Sichtbarkeit: 7 km
Bewölkung: Teilweise bewölkt 152.4 m,
Stark bewölkt 731.5 m
EDDV 220750Z 34007KT 7000 -RA SCT005 BKN024 10/09 Q1028 NOSIG
EDDT - Berlin
Aktualisierung: 22.10.2018 9:50
Stark bewölkt  
Stark bewölkt  
   Wind: WSW 9.3 km/h
Wind: WSW 9.3 km/h
Temperatur: 10°C
Gefühlt: 9°C
Taupunkt: 6°C
Luftfeuchte: 76%
Luftdruck: 1025 hPa
Bewölkt: Stark bewölkt
Sichtbarkeit: More than 10 km
Bewölkung: Stark bewölkt 853.4 m
EDDT 220750Z 24005KT 9999 BKN028 10/06 Q1025 NOSIG
EDDE - Schwerin
Aktualisierung: 22.10.2018 9:50
Stark bewölkt  
Stark bewölkt  
   Wind: WSW 16.7 km/h
Wind: WSW 16.7 km/h
Temperatur: 6°C
Gefühlt: 3°C
Taupunkt: 4°C
Luftfeuchte: 87%
Luftdruck: 1027 hPa
Bewölkt: Stark bewölkt
Sichtbarkeit: More than 10 km
Bewölkung: Stark bewölkt 853.4 m
EDDE 220750Z 24009KT 9999 BKN028 06/04 Q1027 NOSIG
EDHI - Hamburg
Aktualisierung: 22.10.2018 9:20
Klar  
Klar  
   Wind: NNW 14.8 km/h
Wind: NNW 14.8 km/h
Temperatur: 11°C
Taupunkt: 8°C
Luftfeuchte: 82%
Luftdruck: 1027 hPa
Sichtbarkeit: More than 10 km
Bewölkung: Klar
EDHI 220720Z 33008KT 300V360 CAVOK 11/08 Q1027
EDDK - Köln/Bonn
Aktualisierung: 22.10.2018 9:50
Stark bewölkt  
Stark bewölkt  
   Wind: variiert 3.7 km/h
Wind: variiert 3.7 km/h
Temperatur: 8°C
Taupunkt: 5°C
Luftfeuchte: 82%
Luftdruck: 1029 hPa
Bewölkt: Stark bewölkt
Sichtbarkeit: More than 10 km
Bewölkung: Teilweise bewölkt 883.9 m,
Stark bewölkt 1432.6 m
EDDK 220750Z VRB02KT 9999 SCT029 BKN047 08/05 Q1029 BECMG BKN012
EDHL - Luebeck
Aktualisierung: 22.10.2018 9:20
Klar  
Klar  
   Wind: variiert 5.6 km/h
Wind: variiert 5.6 km/h
Temperatur: 11°C
Taupunkt: 9°C
Luftfeuchte: 88%
Luftdruck: 1027 hPa
Sichtbarkeit: More than 10 km
Bewölkung: Klar
EDHL 220720Z VRB03KT CAVOK 11/09 Q1027
 

Script entwickelt von  Saratoga-weather.org Angepasst für das Template von  Weerstation Leuven

Sie finden die Wetterinfo auch auf:

Wetternetzwerk Deutschland

European Weather Network

Weather Underground

Regionalwetter-SA

wetter.com

wxforum.de

Genutzte Hardware, Software und WEB Anbieter:

Wetterstation
Ventus W928-Ultimate

Wetterprogramm
Meteohub

WetterComputer
RaspberryPI

Anbieter
WEB Provider One.com

Ventus W928-Ultimate

Meteohub

RaspberryPI

WEB Provider One.com